Flight Track Log - Related Links

Times and Time Zones

All times are in EDT time to prevent confusion due to time zone crossing. See the N550WC flight status page for this flight to view local times or setup timezone preferences in your user account.

Time Position Orientation Groundspeed Altitude Reporting Facility
EDT Latitude Longitude Course Direction KTS MPH feet Rate Location/Type
Wed 06:20:32 PM 35.9289 -90.6261 11° North 169 194 2,600  Level Memphis Center
Wed 06:21:32 PM 35.9603 -90.6161 14° North 146 168 3,300 650 Climbing Memphis Center
Wed 06:22:32 PM 35.9958 -90.6111 North 128 147 3,900 550 Climbing Memphis Center
Wed 06:23:32 PM 36.0333 -90.6033 10° North 123 142 4,400 496 Climbing Memphis Center
Wed 06:24:33 PM 36.0686 -90.5958 10° North 123 142 4,900 450 Climbing Memphis Center
Wed 06:25:00 PM 36.0899 -90.5734 11° North  Level FlightAware Approximate
Wed 06:25:32 PM 36.1022 -90.5883 10° North 123 142 5,300  Level Memphis Center
Wed 06:26:32 PM 36.1375 -90.5781 13° North 128 147 5,600 250 Climbing Memphis Center
Wed 06:27:32 PM 36.1750 -90.5703 10° North 128 147 5,800 250 Climbing Memphis Center
Wed 06:28:32 PM 36.2128 -90.5628 North 133 153 6,100 300 Climbing Memphis Center
Wed 06:29:32 PM 36.2522 -90.5553 North 133 153 6,400 250 Climbing Memphis Center
Wed 06:30:32 PM 36.2878 -90.5475 10° North 133 153 6,600 250 Climbing Memphis Center
Wed 06:31:32 PM 36.3231 -90.5397 10° North 128 147 6,900 250 Climbing Memphis Center
Wed 06:32:32 PM 36.3608 -90.5322 North 123 142 7,100 250 Climbing Memphis Center
Wed 06:33:32 PM 36.3961 -90.5244 10° North 123 142 7,400 300 Climbing Memphis Center
Wed 06:34:32 PM 36.4336 -90.5169 North 123 142 7,700 250 Climbing Memphis Center
Wed 06:35:32 PM 36.4669 -90.5092 11° North 123 142 7,900 250 Climbing Memphis Center
Wed 06:36:32 PM 36.5047 -90.5017 North 123 142 8,200 300 Climbing Memphis Center
Wed 06:37:32 PM 36.5400 -90.4914 13° North 123 142 8,500 250 Climbing Memphis Center
Wed 06:38:32 PM 36.5733 -90.4861 North 123 142 8,700 250 Climbing Memphis Center
Wed 06:39:32 PM 36.6067 -90.4758 14° North 123 142 9,000 150 Climbing Memphis Center
Wed 06:40:32 PM 36.6442 -90.4708 North 123 142 9,000 -50 Level Memphis Center
Wed 06:41:32 PM 36.6839 -90.4631 North 134 154 8,900  Descending Memphis Center
Wed 06:42:32 PM 36.7214 -90.4528 12° North 140 161 9,000 100 Climbing Memphis Center
Wed 06:43:32 PM 36.7653 -90.4425 11° North 140 161 9,100  Climbing Memphis Center
Wed 06:44:32 PM 36.8028 -90.4347 North 140 161 9,000 -29 Descending Memphis Center
Wed 06:47:01 PM 36.9006 -90.4083 12° North 143 165 9,000 -28 Level Kansas City Center
Wed 06:48:03 PM 36.9397 -90.4003 North 143 165 8,900 -97 Descending Kansas City Center
Wed 06:49:05 PM 36.9808 -90.3914 10° North 145 167 8,800  Descending Kansas City Center
Wed 06:50:08 PM 37.0208 -90.3819 11° North 146 168 8,900 48 Climbing Kansas City Center
Wed 06:51:10 PM 37.0667 -90.3717 10° North 140 161 8,900  Level Kansas City Center
Wed 06:52:12 PM 37.1069 -90.3625 10° North 145 167 8,900  Level Kansas City Center
Wed 06:53:14 PM 37.1467 -90.3525 11° North 144 166 8,900  Level Kansas City Center
Wed 06:54:16 PM 37.1869 -90.3447 North 145 167 8,900  Level Kansas City Center
Wed 06:55:18 PM 37.2261 -90.3339 12° North 144 166 8,900  Level Kansas City Center
Wed 06:56:20 PM 37.2667 -90.3267 North 145 167 8,900  Level Kansas City Center
Wed 06:57:22 PM 37.3064 -90.3175 10° North 145 167 8,900  Level Kansas City Center
Wed 06:58:24 PM 37.3500 -90.3075 10° North 146 168 8,900  Level Kansas City Center
Wed 06:59:26 PM 37.3894 -90.2975 11° North 145 167 8,900 -145 Level Kansas City Center
Wed 07:00:28 PM 37.4311 -90.2881 10° North 149 171 8,600 -290 Descending Kansas City Center
Wed 07:01:30 PM 37.4736 -90.2806 North 154 177 8,300 -387 Descending Kansas City Center
Wed 07:02:32 PM 37.5267 -90.2675 11° North 160 184 7,800 -387 Descending Kansas City Center
Wed 07:03:34 PM 37.5697 -90.2561 12° North 159 183 7,500 -290 Descending Kansas City Center
Wed 07:04:36 PM 37.6144 -90.2472 North 162 186 7,200 -339 Descending Kansas City Center
Wed 07:05:38 PM 37.6578 -90.2378 10° North 159 183 6,800 -339 Descending Kansas City Center
Wed 07:06:40 PM 37.7028 -90.2300 North 162 186 6,500 -290 Descending Kansas City Center
Wed 07:07:42 PM 37.7483 -90.2275 North 164 189 6,200 -387 Descending Kansas City Center
Wed 07:08:44 PM 37.8036 -90.2208 North 167 192 5,700 -387 Descending Kansas City Center
Wed 07:09:46 PM 37.8497 -90.2169 North 166 191 5,400 -339 Descending Kansas City Center
Wed 07:10:48 PM 37.8961 -90.2142 North 167 192 5,000 -188 Descending Kansas City Center
Wed 07:12:26 PM 37.9667 -90.2167 358° North 151 174 4,900 -39 Descending Gateway (St. Louis) TRACON
Wed 07:13:20 PM 38.0000 -90.2000 22° Northeast 148 170 4,900 -136 Level Gateway (St. Louis) TRACON
Wed 07:13:54 PM 38.0308 -90.2014 358° North 149 171 4,700 -313 Descending Kansas City Center
Wed 07:14:56 PM 38.0750 -90.1983 North 158 182 4,400 -339 Descending Kansas City Center
Wed 07:15:58 PM 38.1203 -90.1950 North 162 186 4,000 -194 Descending Kansas City Center
Wed 07:17:00 PM 38.1631 -90.1897 North 158 182 4,000 -48 Level Kansas City Center
Wed 07:18:03 PM 38.2031 -90.1864 North 152 175 3,900 -240 Descending Kansas City Center
Wed 07:19:05 PM 38.2447 -90.1833 North 149 171 3,500 -484 Descending Kansas City Center
Wed 07:20:07 PM 38.2972 -90.1794 North 153 176 2,900 -532 Descending Kansas City Center
Wed 07:21:09 PM 38.3406 -90.1747 North 156 180 2,400 -435 Descending Kansas City Center
Wed 07:22:11 PM 38.3831 -90.1722 North 156 180 2,000 -387 Descending Kansas City Center
Wed 07:23:13 PM 38.4244 -90.1758 356° North 152 175 1,600 -194 Descending Kansas City Center
Wed 07:24:15 PM 38.4644 -90.1792 356° North 149 171 1,600  Level Kansas City Center
Wed 07:25:17 PM 38.5031 -90.1825 356° North 144 166 1,600 -48 Level Kansas City Center
Wed 07:26:19 PM 38.5447 -90.1864 356° North 134 154 1,500 -242 Descending Kansas City Center
Wed 07:27:21 PM 38.5719 -90.1906 353° North 114 131 1,100 -484 Descending Kansas City Center
Wed 07:28:23 PM 38.5714 -90.1589 91° East 110 127 500 -581 Descending Kansas City Center
Wed 07:30:00 PM 38.5667 -90.1500 90° East  Level FlightAware Approximate
Wed 07:37:00 PM 38.5704 -90.1551 90° East  Level Estimated
Wed 07:38:00 PM 38.5667 -90.1500 90° East  Level FlightAware Approximate

Login

Don't have an account? Register now (free) for customized features, flight alerts, and more!